sensor_id;sensor_type;location;lat;lon;timestamp;temperature;humidity
33739;DHT22;20063;51.730;11.110;2022-08-25T00:01:33;18.60;99.90
33739;DHT22;20063;51.730;11.110;2022-08-25T00:04:01;18.60;99.90
33739;DHT22;20063;51.730;11.110;2022-08-25T00:06:29;18.60;99.90
33739;DHT22;20063;51.730;11.110;2022-08-25T00:08:55;18.60;99.90
33739;DHT22;20063;51.730;11.110;2022-08-25T00:11:25;18.50;99.90
33739;DHT22;20063;51.730;11.110;2022-08-25T00:13:54;18.50;99.90
33739;DHT22;20063;51.730;11.110;2022-08-25T00:16:21;18.40;99.90
33739;DHT22;20063;51.730;11.110;2022-08-25T00:18:55;18.40;99.90
33739;DHT22;20063;51.730;11.110;2022-08-25T00:21:22;18.40;99.90
33739;DHT22;20063;51.730;11.110;2022-08-25T00:23:48;18.40;99.90
33739;DHT22;20063;51.730;11.110;2022-08-25T00:26:15;18.30;99.90
33739;DHT22;20063;51.730;11.110;2022-08-25T00:28:41;18.30;99.90
33739;DHT22;20063;51.730;11.110;2022-08-25T00:31:11;18.30;99.90
33739;DHT22;20063;51.730;11.110;2022-08-25T00:33:38;18.30;99.90
33739;DHT22;20063;51.730;11.110;2022-08-25T00:36:04;18.20;99.90
33739;DHT22;20063;51.730;11.110;2022-08-25T00:38:30;18.20;99.90
33739;DHT22;20063;51.730;11.110;2022-08-25T00:40:56;18.10;99.90
33739;DHT22;20063;51.730;11.110;2022-08-25T00:46:06;18.10;99.90
33739;DHT22;20063;51.730;11.110;2022-08-25T00:48:32;18.10;99.90
33739;DHT22;20063;51.730;11.110;2022-08-25T00:50:59;18.10;99.90
33739;DHT22;20063;51.730;11.110;2022-08-25T00:53:28;18.00;99.90
33739;DHT22;20063;51.730;11.110;2022-08-25T00:55:54;18.00;99.90
33739;DHT22;20063;51.730;11.110;2022-08-25T00:58:23;18.00;99.90
33739;DHT22;20063;51.730;11.110;2022-08-25T01:00:51;18.10;99.90
33739;DHT22;20063;51.730;11.110;2022-08-25T01:03:19;18.10;99.90
33739;DHT22;20063;51.730;11.110;2022-08-25T01:05:46;18.10;99.90
33739;DHT22;20063;51.730;11.110;2022-08-25T01:08:13;18.00;99.90
33739;DHT22;20063;51.730;11.110;2022-08-25T01:10:42;18.00;99.90
33739;DHT22;20063;51.730;11.110;2022-08-25T01:13:14;18.00;99.90
33739;DHT22;20063;51.730;11.110;2022-08-25T01:15:43;18.00;99.90
33739;DHT22;20063;51.730;11.110;2022-08-25T01:18:09;18.00;99.90
33739;DHT22;20063;51.730;11.110;2022-08-25T01:20:36;18.00;99.90
33739;DHT22;20063;51.730;11.110;2022-08-25T01:23:02;18.00;99.90
33739;DHT22;20063;51.730;11.110;2022-08-25T01:25:47;17.90;99.90
33739;DHT22;20063;51.730;11.110;2022-08-25T01:28:20;18.00;99.90
33739;DHT22;20063;51.730;11.110;2022-08-25T01:30:46;17.90;99.90
33739;DHT22;20063;51.730;11.110;2022-08-25T01:33:12;17.90;99.90
33739;DHT22;20063;51.730;11.110;2022-08-25T01:35:39;17.90;99.90
33739;DHT22;20063;51.730;11.110;2022-08-25T01:38:06;17.90;99.90
33739;DHT22;20063;51.730;11.110;2022-08-25T01:40:33;17.80;99.90
33739;DHT22;20063;51.730;11.110;2022-08-25T01:43:25;17.90;99.90
33739;DHT22;20063;51.730;11.110;2022-08-25T01:45:51;17.80;99.90
33739;DHT22;20063;51.730;11.110;2022-08-25T01:48:17;17.80;99.90
33739;DHT22;20063;51.730;11.110;2022-08-25T01:50:43;17.80;99.90
33739;DHT22;20063;51.730;11.110;2022-08-25T01:53:30;17.80;99.90
33739;DHT22;20063;51.730;11.110;2022-08-25T01:55:56;17.80;99.90
33739;DHT22;20063;51.730;11.110;2022-08-25T01:58:34;17.80;99.90
33739;DHT22;20063;51.730;11.110;2022-08-25T02:01:03;17.80;99.90
33739;DHT22;20063;51.730;11.110;2022-08-25T02:03:30;17.80;99.90
33739;DHT22;20063;51.730;11.110;2022-08-25T02:05:57;17.80;99.90
33739;DHT22;20063;51.730;11.110;2022-08-25T02:08:24;17.80;99.90
33739;DHT22;20063;51.730;11.110;2022-08-25T02:10:51;17.80;99.90
33739;DHT22;20063;51.730;11.110;2022-08-25T02:13:18;17.70;99.90
33739;DHT22;20063;51.730;11.110;2022-08-25T02:15:48;17.70;99.90
33739;DHT22;20063;51.730;11.110;2022-08-25T02:18:16;17.70;99.90
33739;DHT22;20063;51.730;11.110;2022-08-25T02:20:41;17.60;99.90
33739;DHT22;20063;51.730;11.110;2022-08-25T02:23:07;17.60;99.90
33739;DHT22;20063;51.730;11.110;2022-08-25T02:25:36;17.70;99.90
33739;DHT22;20063;51.730;11.110;2022-08-25T02:28:03;17.60;99.90
33739;DHT22;20063;51.730;11.110;2022-08-25T02:30:28;17.60;99.90
33739;DHT22;20063;51.730;11.110;2022-08-25T02:32:54;17.60;99.90
33739;DHT22;20063;51.730;11.110;2022-08-25T02:35:20;17.50;99.90
33739;DHT22;20063;51.730;11.110;2022-08-25T02:37:46;17.50;99.90
33739;DHT22;20063;51.730;11.110;2022-08-25T02:40:11;17.50;99.90
33739;DHT22;20063;51.730;11.110;2022-08-25T02:42:37;17.50;99.90
33739;DHT22;20063;51.730;11.110;2022-08-25T02:45:03;17.50;99.90
33739;DHT22;20063;51.730;11.110;2022-08-25T02:47:29;17.50;99.90
33739;DHT22;20063;51.730;11.110;2022-08-25T02:49:56;17.50;99.90
33739;DHT22;20063;51.730;11.110;2022-08-25T02:52:22;17.50;99.90
33739;DHT22;20063;51.730;11.110;2022-08-25T02:54:47;17.50;99.90
33739;DHT22;20063;51.730;11.110;2022-08-25T02:57:13;17.50;99.90
33739;DHT22;20063;51.730;11.110;2022-08-25T02:59:40;17.50;99.90
33739;DHT22;20063;51.730;11.110;2022-08-25T03:02:06;17.50;99.90
33739;DHT22;20063;51.730;11.110;2022-08-25T03:04:31;17.50;99.90
33739;DHT22;20063;51.730;11.110;2022-08-25T03:06:57;17.40;99.90
33739;DHT22;20063;51.730;11.110;2022-08-25T03:09:25;17.40;99.90
33739;DHT22;20063;51.730;11.110;2022-08-25T03:11:50;17.50;99.90
33739;DHT22;20063;51.730;11.110;2022-08-25T03:14:16;17.40;99.90
33739;DHT22;20063;51.730;11.110;2022-08-25T03:16:41;17.40;99.90
33739;DHT22;20063;51.730;11.110;2022-08-25T03:19:08;17.40;99.90
33739;DHT22;20063;51.730;11.110;2022-08-25T03:21:38;17.50;99.90
33739;DHT22;20063;51.730;11.110;2022-08-25T03:24:05;17.40;99.90
33739;DHT22;20063;51.730;11.110;2022-08-25T03:26:31;17.40;99.90
33739;DHT22;20063;51.730;11.110;2022-08-25T03:29:15;17.40;99.90
33739;DHT22;20063;51.730;11.110;2022-08-25T03:31:42;17.40;99.90
33739;DHT22;20063;51.730;11.110;2022-08-25T03:34:12;17.50;99.90
33739;DHT22;20063;51.730;11.110;2022-08-25T03:36:37;17.50;99.90
33739;DHT22;20063;51.730;11.110;2022-08-25T03:39:04;17.50;99.90
33739;DHT22;20063;51.730;11.110;2022-08-25T03:41:31;17.50;99.90
33739;DHT22;20063;51.730;11.110;2022-08-25T03:43:58;17.40;99.90
33739;DHT22;20063;51.730;11.110;2022-08-25T03:46:33;17.40;99.90
33739;DHT22;20063;51.730;11.110;2022-08-25T03:49:00;17.40;99.90
33739;DHT22;20063;51.730;11.110;2022-08-25T03:51:29;17.40;99.90
33739;DHT22;20063;51.730;11.110;2022-08-25T03:53:56;17.40;99.90
33739;DHT22;20063;51.730;11.110;2022-08-25T03:56:23;17.40;99.90
33739;DHT22;20063;51.730;11.110;2022-08-25T03:58:49;17.40;99.90
33739;DHT22;20063;51.730;11.110;2022-08-25T04:01:16;17.40;99.90
33739;DHT22;20063;51.730;11.110;2022-08-25T04:03:41;17.40;99.90
33739;DHT22;20063;51.730;11.110;2022-08-25T04:06:07;17.40;99.90
33739;DHT22;20063;51.730;11.110;2022-08-25T04:08:34;17.40;99.90
33739;DHT22;20063;51.730;11.110;2022-08-25T04:11:05;17.40;99.90
33739;DHT22;20063;51.730;11.110;2022-08-25T04:13:31;17.40;99.90
33739;DHT22;20063;51.730;11.110;2022-08-25T04:15:57;17.30;99.90
33739;DHT22;20063;51.730;11.110;2022-08-25T04:18:22;17.30;99.90
33739;DHT22;20063;51.730;11.110;2022-08-25T04:20:48;17.20;99.90
33739;DHT22;20063;51.730;11.110;2022-08-25T04:23:13;17.20;99.90
33739;DHT22;20063;51.730;11.110;2022-08-25T04:25:40;17.20;99.90
33739;DHT22;20063;51.730;11.110;2022-08-25T04:28:09;17.10;99.90
33739;DHT22;20063;51.730;11.110;2022-08-25T04:30:35;17.20;99.90
33739;DHT22;20063;51.730;11.110;2022-08-25T04:33:00;17.10;99.90
33739;DHT22;20063;51.730;11.110;2022-08-25T04:35:26;17.10;99.90
33739;DHT22;20063;51.730;11.110;2022-08-25T04:37:52;17.10;99.90
33739;DHT22;20063;51.730;11.110;2022-08-25T04:40:17;17.10;99.90
33739;DHT22;20063;51.730;11.110;2022-08-25T04:42:43;17.20;99.90
33739;DHT22;20063;51.730;11.110;2022-08-25T04:45:09;17.20;99.90
33739;DHT22;20063;51.730;11.110;2022-08-25T04:47:39;17.20;99.90
33739;DHT22;20063;51.730;11.110;2022-08-25T04:50:06;17.30;99.90
33739;DHT22;20063;51.730;11.110;2022-08-25T04:52:32;17.30;99.90
33739;DHT22;20063;51.730;11.110;2022-08-25T04:54:57;17.30;99.90
33739;DHT22;20063;51.730;11.110;2022-08-25T04:57:24;17.30;99.90
33739;DHT22;20063;51.730;11.110;2022-08-25T04:59:49;17.30;99.90
33739;DHT22;20063;51.730;11.110;2022-08-25T05:02:15;17.40;99.90
33739;DHT22;20063;51.730;11.110;2022-08-25T05:04:40;17.40;99.90
33739;DHT22;20063;51.730;11.110;2022-08-25T05:07:06;17.40;99.90
33739;DHT22;20063;51.730;11.110;2022-08-25T05:09:32;17.50;99.90
33739;DHT22;20063;51.730;11.110;2022-08-25T05:11:57;17.50;99.90
33739;DHT22;20063;51.730;11.110;2022-08-25T05:14:23;17.50;99.90
33739;DHT22;20063;51.730;11.110;2022-08-25T05:16:49;17.50;99.90
33739;DHT22;20063;51.730;11.110;2022-08-25T05:19:14;17.50;99.90
33739;DHT22;20063;51.730;11.110;2022-08-25T05:21:40;17.50;99.90
33739;DHT22;20063;51.730;11.110;2022-08-25T05:24:06;17.60;99.90
33739;DHT22;20063;51.730;11.110;2022-08-25T05:26:33;17.60;99.90
33739;DHT22;20063;51.730;11.110;2022-08-25T05:29:01;17.70;99.90
33739;DHT22;20063;51.730;11.110;2022-08-25T05:31:29;17.60;99.90
33739;DHT22;20063;51.730;11.110;2022-08-25T05:33:56;17.70;99.90
33739;DHT22;20063;51.730;11.110;2022-08-25T05:36:23;17.70;99.90
33739;DHT22;20063;51.730;11.110;2022-08-25T05:38:49;17.80;99.90
33739;DHT22;20063;51.730;11.110;2022-08-25T05:41:24;17.80;99.90
33739;DHT22;20063;51.730;11.110;2022-08-25T05:44:00;17.90;99.90
33739;DHT22;20063;51.730;11.110;2022-08-25T05:46:26;17.90;99.90
33739;DHT22;20063;51.730;11.110;2022-08-25T05:48:52;17.90;99.90
33739;DHT22;20063;51.730;11.110;2022-08-25T05:51:18;18.00;99.90
33739;DHT22;20063;51.730;11.110;2022-08-25T05:53:46;18.00;99.90
33739;DHT22;20063;51.730;11.110;2022-08-25T05:56:12;18.10;99.90
33739;DHT22;20063;51.730;11.110;2022-08-25T05:58:38;18.20;99.90
33739;DHT22;20063;51.730;11.110;2022-08-25T06:01:05;18.20;99.90
33739;DHT22;20063;51.730;11.110;2022-08-25T06:03:50;18.30;99.90
33739;DHT22;20063;51.730;11.110;2022-08-25T06:06:21;18.30;99.90
33739;DHT22;20063;51.730;11.110;2022-08-25T06:08:47;18.40;99.90
33739;DHT22;20063;51.730;11.110;2022-08-25T06:11:13;18.40;99.90
33739;DHT22;20063;51.730;11.110;2022-08-25T06:13:40;18.50;99.90
33739;DHT22;20063;51.730;11.110;2022-08-25T06:16:05;18.60;99.90
33739;DHT22;20063;51.730;11.110;2022-08-25T06:18:31;18.60;99.90
33739;DHT22;20063;51.730;11.110;2022-08-25T06:20:57;18.70;99.90
33739;DHT22;20063;51.730;11.110;2022-08-25T06:23:22;18.80;99.90
33739;DHT22;20063;51.730;11.110;2022-08-25T06:25:52;18.80;99.90
33739;DHT22;20063;51.730;11.110;2022-08-25T06:28:19;18.90;99.90
33739;DHT22;20063;51.730;11.110;2022-08-25T06:30:45;18.90;99.90
33739;DHT22;20063;51.730;11.110;2022-08-25T06:33:11;18.90;99.90
33739;DHT22;20063;51.730;11.110;2022-08-25T06:35:40;18.90;99.90
33739;DHT22;20063;51.730;11.110;2022-08-25T06:38:07;19.00;99.90
33739;DHT22;20063;51.730;11.110;2022-08-25T06:40:32;19.00;99.90
33739;DHT22;20063;51.730;11.110;2022-08-25T06:42:58;19.10;99.90
33739;DHT22;20063;51.730;11.110;2022-08-25T06:45:24;19.10;99.90
33739;DHT22;20063;51.730;11.110;2022-08-25T06:47:49;19.10;99.90
33739;DHT22;20063;51.730;11.110;2022-08-25T06:50:16;19.20;99.90
33739;DHT22;20063;51.730;11.110;2022-08-25T06:52:41;19.30;99.90
33739;DHT22;20063;51.730;11.110;2022-08-25T06:55:07;19.40;99.90
33739;DHT22;20063;51.730;11.110;2022-08-25T06:57:33;19.40;99.90
33739;DHT22;20063;51.730;11.110;2022-08-25T07:00:04;19.40;99.90
33739;DHT22;20063;51.730;11.110;2022-08-25T07:02:30;19.40;99.90
33739;DHT22;20063;51.730;11.110;2022-08-25T07:04:56;19.50;99.90
33739;DHT22;20063;51.730;11.110;2022-08-25T07:07:21;19.50;99.90
33739;DHT22;20063;51.730;11.110;2022-08-25T07:09:47;19.60;99.90
33739;DHT22;20063;51.730;11.110;2022-08-25T07:12:13;19.60;99.90
33739;DHT22;20063;51.730;11.110;2022-08-25T07:14:38;19.60;99.90
33739;DHT22;20063;51.730;11.110;2022-08-25T07:17:07;19.70;99.90
33739;DHT22;20063;51.730;11.110;2022-08-25T07:19:32;19.80;99.90
33739;DHT22;20063;51.730;11.110;2022-08-25T07:21:58;19.80;99.90
33739;DHT22;20063;51.730;11.110;2022-08-25T07:24:24;19.80;99.90
33739;DHT22;20063;51.730;11.110;2022-08-25T07:26:50;19.90;99.90
33739;DHT22;20063;51.730;11.110;2022-08-25T07:29:19;19.90;99.90
33739;DHT22;20063;51.730;11.110;2022-08-25T07:31:46;20.00;99.90
33739;DHT22;20063;51.730;11.110;2022-08-25T07:34:11;20.00;99.90
33739;DHT22;20063;51.730;11.110;2022-08-25T07:36:56;20.10;99.90
33739;DHT22;20063;51.730;11.110;2022-08-25T07:39:22;20.10;99.90
33739;DHT22;20063;51.730;11.110;2022-08-25T07:41:48;20.20;99.90
33739;DHT22;20063;51.730;11.110;2022-08-25T07:44:14;20.30;99.90
33739;DHT22;20063;51.730;11.110;2022-08-25T07:46:40;20.30;99.90
33739;DHT22;20063;51.730;11.110;2022-08-25T07:49:06;20.40;99.90
33739;DHT22;20063;51.730;11.110;2022-08-25T07:51:32;20.40;99.90
33739;DHT22;20063;51.730;11.110;2022-08-25T07:53:58;20.50;99.90
33739;DHT22;20063;51.730;11.110;2022-08-25T07:56:23;20.60;99.90
33739;DHT22;20063;51.730;11.110;2022-08-25T07:58:49;20.60;99.90
33739;DHT22;20063;51.730;11.110;2022-08-25T08:01:17;20.70;99.90
33739;DHT22;20063;51.730;11.110;2022-08-25T08:03:44;20.80;99.90
33739;DHT22;20063;51.730;11.110;2022-08-25T08:06:12;20.80;99.90
33739;DHT22;20063;51.730;11.110;2022-08-25T08:08:39;20.90;99.90
33739;DHT22;20063;51.730;11.110;2022-08-25T08:11:23;21.00;99.90
33739;DHT22;20063;51.730;11.110;2022-08-25T08:13:51;21.00;99.90
33739;DHT22;20063;51.730;11.110;2022-08-25T08:16:18;21.10;99.90
33739;DHT22;20063;51.730;11.110;2022-08-25T08:18:45;21.20;99.90
33739;DHT22;20063;51.730;11.110;2022-08-25T08:21:12;21.20;99.90
33739;DHT22;20063;51.730;11.110;2022-08-25T08:23:39;21.30;99.90
33739;DHT22;20063;51.730;11.110;2022-08-25T08:26:04;21.30;99.90
33739;DHT22;20063;51.730;11.110;2022-08-25T08:28:31;21.40;99.90
33739;DHT22;20063;51.730;11.110;2022-08-25T08:30:57;21.50;99.90
33739;DHT22;20063;51.730;11.110;2022-08-25T08:33:23;21.60;99.90
33739;DHT22;20063;51.730;11.110;2022-08-25T08:36:10;21.60;99.90
33739;DHT22;20063;51.730;11.110;2022-08-25T08:38:38;21.80;99.90
33739;DHT22;20063;51.730;11.110;2022-08-25T08:50:04;22.30;99.90
33739;DHT22;20063;51.730;11.110;2022-08-25T08:52:48;22.40;99.90
33739;DHT22;20063;51.730;11.110;2022-08-25T08:57:52;22.40;99.90
33739;DHT22;20063;51.730;11.110;2022-08-25T09:00:20;22.50;99.90
33739;DHT22;20063;51.730;11.110;2022-08-25T09:02:51;22.60;99.90
33739;DHT22;20063;51.730;11.110;2022-08-25T09:05:19;22.60;99.90
33739;DHT22;20063;51.730;11.110;2022-08-25T09:07:52;22.70;99.90
33739;DHT22;20063;51.730;11.110;2022-08-25T09:10:18;22.70;99.90
33739;DHT22;20063;51.730;11.110;2022-08-25T09:21:02;22.70;99.90
33739;DHT22;20063;51.730;11.110;2022-08-25T09:27:33;22.80;99.90
33739;DHT22;20063;51.730;11.110;2022-08-25T09:32:20;22.70;99.90
33739;DHT22;20063;51.730;11.110;2022-08-25T09:34:47;22.90;99.90
33739;DHT22;20063;51.730;11.110;2022-08-25T09:37:13;22.90;99.90
33739;DHT22;20063;51.730;11.110;2022-08-25T09:39:38;22.90;99.90
33739;DHT22;20063;51.730;11.110;2022-08-25T09:42:04;23.00;99.90
33739;DHT22;20063;51.730;11.110;2022-08-25T09:44:39;23.00;99.90
33739;DHT22;20063;51.730;11.110;2022-08-25T09:47:18;23.10;99.90
33739;DHT22;20063;51.730;11.110;2022-08-25T09:49:55;23.10;99.90
33739;DHT22;20063;51.730;11.110;2022-08-25T09:52:41;23.20;99.90
33739;DHT22;20063;51.730;11.110;2022-08-25T09:57:44;23.40;99.90
33739;DHT22;20063;51.730;11.110;2022-08-25T10:00:29;23.40;99.90
33739;DHT22;20063;51.730;11.110;2022-08-25T10:03:22;23.50;99.90
33739;DHT22;20063;51.730;11.110;2022-08-25T10:08:39;23.50;99.90
33739;DHT22;20063;51.730;11.110;2022-08-25T10:11:34;23.50;99.90
33739;DHT22;20063;51.730;11.110;2022-08-25T10:14:26;23.50;99.90
33739;DHT22;20063;51.730;11.110;2022-08-25T10:17:17;23.60;99.90
33739;DHT22;20063;51.730;11.110;2022-08-25T10:19:50;23.70;99.90
33739;DHT22;20063;51.730;11.110;2022-08-25T10:22:22;23.80;99.90
33739;DHT22;20063;51.730;11.110;2022-08-25T10:24:49;23.80;99.90
33739;DHT22;20063;51.730;11.110;2022-08-25T10:27:31;23.80;99.90
33739;DHT22;20063;51.730;11.110;2022-08-25T10:30:19;23.90;99.90
33739;DHT22;20063;51.730;11.110;2022-08-25T10:33:08;24.10;99.90
33739;DHT22;20063;51.730;11.110;2022-08-25T10:41:07;24.20;99.90
33739;DHT22;20063;51.730;11.110;2022-08-25T10:43:48;24.30;99.90
33739;DHT22;20063;51.730;11.110;2022-08-25T10:46:46;24.30;99.90
33739;DHT22;20063;51.730;11.110;2022-08-25T10:49:35;24.30;99.90
33739;DHT22;20063;51.730;11.110;2022-08-25T10:52:08;24.20;99.90
33739;DHT22;20063;51.730;11.110;2022-08-25T10:54:56;24.20;99.90
33739;DHT22;20063;51.730;11.110;2022-08-25T10:57:51;24.20;99.90
33739;DHT22;20063;51.730;11.110;2022-08-25T11:00:23;24.20;99.90
33739;DHT22;20063;51.730;11.110;2022-08-25T11:06:06;24.30;99.90
33739;DHT22;20063;51.730;11.110;2022-08-25T11:08:48;24.20;99.90
33739;DHT22;20063;51.730;11.110;2022-08-25T11:11:25;24.30;99.90
33739;DHT22;20063;51.730;11.110;2022-08-25T11:14:20;24.40;99.90
33739;DHT22;20063;51.730;11.110;2022-08-25T11:16:50;24.40;99.90
33739;DHT22;20063;51.730;11.110;2022-08-25T11:19:18;24.50;99.90
33739;DHT22;20063;51.730;11.110;2022-08-25T11:24:40;24.40;99.90
33739;DHT22;20063;51.730;11.110;2022-08-25T11:27:34;24.40;99.90
33739;DHT22;20063;51.730;11.110;2022-08-25T11:30:05;24.50;99.90
33739;DHT22;20063;51.730;11.110;2022-08-25T11:32:33;24.50;99.90
33739;DHT22;20063;51.730;11.110;2022-08-25T11:35:09;24.50;99.90
33739;DHT22;20063;51.730;11.110;2022-08-25T11:37:37;24.50;99.90
33739;DHT22;20063;51.730;11.110;2022-08-25T11:40:19;24.50;99.90
33739;DHT22;20063;51.730;11.110;2022-08-25T11:43:05;24.50;99.90
33739;DHT22;20063;51.730;11.110;2022-08-25T11:45:39;24.50;99.90
33739;DHT22;20063;51.730;11.110;2022-08-25T11:50:57;24.60;99.90
33739;DHT22;20063;51.730;11.110;2022-08-25T11:53:30;24.50;99.90
33739;DHT22;20063;51.730;11.110;2022-08-25T11:56:02;24.60;99.90
33739;DHT22;20063;51.730;11.110;2022-08-25T12:01:09;24.70;99.90
33739;DHT22;20063;51.730;11.110;2022-08-25T12:24:51;25.30;99.90
33739;DHT22;20063;51.730;11.110;2022-08-25T12:30:01;25.30;99.90
33739;DHT22;20063;51.730;11.110;2022-08-25T12:35:31;25.30;99.90
33739;DHT22;20063;51.730;11.110;2022-08-25T12:45:43;25.50;99.90
33739;DHT22;20063;51.730;11.110;2022-08-25T12:50:59;25.60;99.90
33739;DHT22;20063;51.730;11.110;2022-08-25T12:53:58;25.60;99.90
33739;DHT22;20063;51.730;11.110;2022-08-25T12:56:34;25.70;99.90
33739;DHT22;20063;51.730;11.110;2022-08-25T13:10:00;25.90;99.90
33739;DHT22;20063;51.730;11.110;2022-08-25T13:14:59;25.70;99.90
33739;DHT22;20063;51.730;11.110;2022-08-25T13:17:34;25.80;99.90
33739;DHT22;20063;51.730;11.110;2022-08-25T13:20:18;25.70;99.90
33739;DHT22;20063;51.730;11.110;2022-08-25T13:22:49;25.70;99.90
33739;DHT22;20063;51.730;11.110;2022-08-25T13:25:17;25.90;99.90
33739;DHT22;20063;51.730;11.110;2022-08-25T13:27:50;25.90;99.90
33739;DHT22;20063;51.730;11.110;2022-08-25T13:30:30;25.90;99.90
33739;DHT22;20063;51.730;11.110;2022-08-25T13:32:56;26.00;99.90
33739;DHT22;20063;51.730;11.110;2022-08-25T13:35:25;26.20;99.90
33739;DHT22;20063;51.730;11.110;2022-08-25T13:37:51;26.30;99.90
33739;DHT22;20063;51.730;11.110;2022-08-25T13:40:29;26.40;99.90
33739;DHT22;20063;51.730;11.110;2022-08-25T13:43:04;26.40;99.90
33739;DHT22;20063;51.730;11.110;2022-08-25T13:45:38;26.40;99.90
33739;DHT22;20063;51.730;11.110;2022-08-25T13:48:05;26.40;99.90
33739;DHT22;20063;51.730;11.110;2022-08-25T13:50:34;26.30;99.90
33739;DHT22;20063;51.730;11.110;2022-08-25T13:55:37;26.30;99.90
33739;DHT22;20063;51.730;11.110;2022-08-25T13:58:04;26.20;99.90
33739;DHT22;20063;51.730;11.110;2022-08-25T14:00:33;26.10;99.90
33739;DHT22;20063;51.730;11.110;2022-08-25T14:03:03;26.20;99.90
33739;DHT22;20063;51.730;11.110;2022-08-25T14:05:40;26.10;99.90
33739;DHT22;20063;51.730;11.110;2022-08-25T14:08:36;26.10;99.90
33739;DHT22;20063;51.730;11.110;2022-08-25T14:14:00;26.20;99.90
33739;DHT22;20063;51.730;11.110;2022-08-25T14:16:25;26.30;99.90
33739;DHT22;20063;51.730;11.110;2022-08-25T14:18:54;26.40;99.90
33739;DHT22;20063;51.730;11.110;2022-08-25T14:21:26;26.50;99.90
33739;DHT22;20063;51.730;11.110;2022-08-25T14:23:53;26.60;99.90
33739;DHT22;20063;51.730;11.110;2022-08-25T14:26:20;26.60;99.90
33739;DHT22;20063;51.730;11.110;2022-08-25T14:28:46;26.70;99.90
33739;DHT22;20063;51.730;11.110;2022-08-25T14:31:29;26.70;99.90
33739;DHT22;20063;51.730;11.110;2022-08-25T14:33:58;26.80;99.90
33739;DHT22;20063;51.730;11.110;2022-08-25T14:36:26;26.80;99.90
33739;DHT22;20063;51.730;11.110;2022-08-25T14:38:53;26.90;99.90
33739;DHT22;20063;51.730;11.110;2022-08-25T14:41:19;26.90;99.90
33739;DHT22;20063;51.730;11.110;2022-08-25T14:43:46;26.90;99.90
33739;DHT22;20063;51.730;11.110;2022-08-25T14:46:19;26.90;99.90
33739;DHT22;20063;51.730;11.110;2022-08-25T14:48:47;26.80;99.90
33739;DHT22;20063;51.730;11.110;2022-08-25T14:51:14;26.80;99.90
33739;DHT22;20063;51.730;11.110;2022-08-25T14:53:41;26.80;99.90
33739;DHT22;20063;51.730;11.110;2022-08-25T14:56:08;26.80;99.90
33739;DHT22;20063;51.730;11.110;2022-08-25T14:58:34;26.90;99.90
33739;DHT22;20063;51.730;11.110;2022-08-25T15:01:00;26.80;99.90
33739;DHT22;20063;51.730;11.110;2022-08-25T15:03:35;26.90;99.90
33739;DHT22;20063;51.730;11.110;2022-08-25T15:06:02;27.00;99.90
33739;DHT22;20063;51.730;11.110;2022-08-25T15:08:28;27.00;99.90
33739;DHT22;20063;51.730;11.110;2022-08-25T15:11:13;27.10;99.90
33739;DHT22;20063;51.730;11.110;2022-08-25T15:13:39;27.10;99.90
33739;DHT22;20063;51.730;11.110;2022-08-25T15:16:06;27.10;99.90
33739;DHT22;20063;51.730;11.110;2022-08-25T15:18:33;27.10;99.90
33739;DHT22;20063;51.730;11.110;2022-08-25T15:20:58;27.10;99.90
33739;DHT22;20063;51.730;11.110;2022-08-25T15:23:24;27.00;99.90
33739;DHT22;20063;51.730;11.110;2022-08-25T15:25:53;27.00;99.90
33739;DHT22;20063;51.730;11.110;2022-08-25T15:28:19;26.90;99.90
33739;DHT22;20063;51.730;11.110;2022-08-25T15:30:45;26.80;99.90
33739;DHT22;20063;51.730;11.110;2022-08-25T15:33:12;26.80;99.90
33739;DHT22;20063;51.730;11.110;2022-08-25T15:35:37;26.70;99.90
33739;DHT22;20063;51.730;11.110;2022-08-25T15:38:03;26.60;99.90
33739;DHT22;20063;51.730;11.110;2022-08-25T15:40:29;26.60;99.90
33739;DHT22;20063;51.730;11.110;2022-08-25T15:42:54;26.50;99.90
33739;DHT22;20063;51.730;11.110;2022-08-25T15:45:20;26.50;99.90
33739;DHT22;20063;51.730;11.110;2022-08-25T15:47:46;26.50;99.90
33739;DHT22;20063;51.730;11.110;2022-08-25T15:50:15;26.40;99.90
33739;DHT22;20063;51.730;11.110;2022-08-25T15:52:41;26.40;99.90
33739;DHT22;20063;51.730;11.110;2022-08-25T15:55:08;26.50;99.90
33739;DHT22;20063;51.730;11.110;2022-08-25T15:57:34;26.60;99.90
33739;DHT22;20063;51.730;11.110;2022-08-25T16:00:02;26.60;99.90
33739;DHT22;20063;51.730;11.110;2022-08-25T16:02:28;26.70;99.90
33739;DHT22;20063;51.730;11.110;2022-08-25T16:04:54;26.80;99.90
33739;DHT22;20063;51.730;11.110;2022-08-25T16:07:20;26.90;99.90
33739;DHT22;20063;51.730;11.110;2022-08-25T16:09:46;27.00;99.90
33739;DHT22;20063;51.730;11.110;2022-08-25T16:12:11;27.10;99.90
33739;DHT22;20063;51.730;11.110;2022-08-25T16:14:37;27.20;99.90
33739;DHT22;20063;51.730;11.110;2022-08-25T16:17:03;27.20;99.90
33739;DHT22;20063;51.730;11.110;2022-08-25T16:19:29;27.20;99.90
33739;DHT22;20063;51.730;11.110;2022-08-25T16:21:56;27.30;99.90
33739;DHT22;20063;51.730;11.110;2022-08-25T16:24:22;27.30;99.90
33739;DHT22;20063;51.730;11.110;2022-08-25T16:26:48;27.30;99.90
33739;DHT22;20063;51.730;11.110;2022-08-25T16:29:15;27.20;99.90
33739;DHT22;20063;51.730;11.110;2022-08-25T16:31:40;27.20;99.90
33739;DHT22;20063;51.730;11.110;2022-08-25T16:34:06;27.10;99.90
33739;DHT22;20063;51.730;11.110;2022-08-25T16:36:32;27.10;99.90
33739;DHT22;20063;51.730;11.110;2022-08-25T16:38:57;27.10;99.90
33739;DHT22;20063;51.730;11.110;2022-08-25T16:41:27;27.00;99.90
33739;DHT22;20063;51.730;11.110;2022-08-25T16:44:00;27.00;99.90
33739;DHT22;20063;51.730;11.110;2022-08-25T16:46:26;26.90;99.90
33739;DHT22;20063;51.730;11.110;2022-08-25T16:48:52;26.90;99.90
33739;DHT22;20063;51.730;11.110;2022-08-25T16:51:19;26.90;99.90
33739;DHT22;20063;51.730;11.110;2022-08-25T16:53:46;26.80;99.90
33739;DHT22;20063;51.730;11.110;2022-08-25T16:56:36;26.80;99.90
33739;DHT22;20063;51.730;11.110;2022-08-25T16:59:03;26.70;99.90
33739;DHT22;20063;51.730;11.110;2022-08-25T17:01:30;26.70;99.90
33739;DHT22;20063;51.730;11.110;2022-08-25T17:03:58;26.60;99.90
33739;DHT22;20063;51.730;11.110;2022-08-25T17:06:27;26.60;99.90
33739;DHT22;20063;51.730;11.110;2022-08-25T17:08:52;26.60;99.90
33739;DHT22;20063;51.730;11.110;2022-08-25T17:11:21;26.60;99.90
33739;DHT22;20063;51.730;11.110;2022-08-25T17:13:50;26.60;99.90
33739;DHT22;20063;51.730;11.110;2022-08-25T17:16:17;26.50;99.90